createdAt,value
2018-06-23T00:00:58.410Z,0.00
2018-06-23T00:01:58.432Z,0.00
2018-06-23T00:02:58.486Z,0.00
2018-06-23T00:03:58.451Z,0.00
2018-06-23T00:04:58.399Z,0.00
2018-06-23T00:05:58.455Z,0.00
2018-06-23T00:06:58.459Z,0.00
2018-06-23T00:07:59.116Z,0.00
2018-06-23T00:08:58.427Z,0.00
2018-06-23T00:09:58.469Z,0.00
2018-06-23T00:10:58.474Z,0.00
2018-06-23T00:11:58.469Z,0.00
2018-06-23T00:12:58.480Z,0.00
2018-06-23T00:13:58.458Z,0.00
2018-06-23T00:14:58.453Z,0.00
2018-06-23T00:15:58.465Z,0.00
2018-06-23T00:16:58.468Z,0.00
2018-06-23T00:17:58.477Z,0.00
2018-06-23T00:18:58.428Z,0.00
2018-06-23T00:19:58.451Z,0.00
2018-06-23T00:20:58.443Z,0.00
2018-06-23T00:21:58.468Z,0.00
2018-06-23T00:22:58.468Z,0.00
2018-06-23T00:23:58.462Z,0.00
2018-06-23T00:24:58.468Z,0.00
2018-06-23T00:25:58.449Z,0.00
2018-06-23T00:26:58.491Z,0.00
2018-06-23T00:27:58.477Z,0.00
2018-06-23T00:28:58.509Z,0.00
2018-06-23T00:29:58.525Z,0.00
2018-06-23T00:30:58.477Z,0.00
2018-06-23T00:31:58.472Z,0.00
2018-06-23T00:32:58.482Z,0.00
2018-06-23T00:33:58.540Z,0.00
2018-06-23T00:34:58.457Z,0.00
2018-06-23T00:35:58.456Z,0.00
2018-06-23T00:36:58.485Z,0.00
2018-06-23T00:37:58.485Z,0.00
2018-06-23T00:38:58.460Z,0.00
2018-06-23T00:39:58.469Z,0.00
2018-06-23T00:40:58.453Z,0.00
2018-06-23T00:41:58.465Z,0.00
2018-06-23T00:42:58.449Z,0.00
2018-06-23T00:43:58.479Z,0.00
2018-06-23T00:44:58.445Z,0.00
2018-06-23T00:45:58.540Z,0.00
2018-06-23T00:46:58.533Z,0.00
2018-06-23T00:47:58.572Z,0.00
2018-06-23T00:48:58.502Z,0.00
2018-06-23T00:49:58.524Z,0.00
2018-06-23T00:50:58.476Z,0.00
2018-06-23T00:51:58.481Z,0.00
2018-06-23T00:52:58.469Z,0.00
2018-06-23T00:53:58.470Z,0.00
2018-06-23T00:54:58.502Z,0.00
2018-06-23T00:55:58.496Z,0.00
2018-06-23T00:56:58.475Z,0.00
2018-06-23T00:57:58.503Z,0.00
2018-06-23T00:58:58.492Z,0.00
2018-06-23T00:59:58.512Z,0.00
2018-06-23T01:00:58.523Z,0.00
2018-06-23T01:01:58.507Z,0.00
2018-06-23T01:02:58.465Z,0.00
2018-06-23T01:03:58.507Z,0.00
2018-06-23T01:04:58.513Z,0.00
2018-06-23T01:05:58.497Z,0.00
2018-06-23T01:06:58.492Z,0.00
2018-06-23T01:07:58.513Z,0.00
2018-06-23T01:08:58.482Z,0.00
2018-06-23T01:09:58.471Z,0.00
2018-06-23T01:10:58.478Z,0.00
2018-06-23T01:11:59.129Z,0.00
2018-06-23T01:12:58.533Z,0.00
2018-06-23T01:13:58.521Z,0.00
2018-06-23T01:14:58.497Z,0.00
2018-06-23T01:15:58.493Z,0.00
2018-06-23T01:16:58.523Z,0.00
2018-06-23T01:17:59.131Z,0.00
2018-06-23T01:18:58.485Z,0.00
2018-06-23T01:19:58.549Z,0.00
2018-06-23T01:20:58.491Z,0.00
2018-06-23T01:21:58.551Z,0.00
2018-06-23T01:22:58.531Z,0.00
2018-06-23T01:23:58.524Z,0.00
2018-06-23T01:24:58.630Z,0.00
2018-06-23T01:25:58.508Z,0.00
2018-06-23T01:26:58.562Z,0.00
2018-06-23T01:27:58.499Z,0.00
2018-06-23T01:28:58.550Z,0.00
2018-06-23T01:29:58.535Z,0.00
2018-06-23T01:30:58.551Z,0.00
2018-06-23T01:31:58.510Z,0.00
2018-06-23T01:32:58.541Z,0.00
2018-06-23T01:33:58.506Z,0.00
2018-06-23T01:34:58.521Z,0.00
2018-06-23T01:35:58.528Z,0.00
2018-06-23T01:36:58.507Z,0.00
2018-06-23T01:37:58.533Z,0.00
2018-06-23T01:38:58.502Z,0.00
2018-06-23T01:39:58.508Z,0.00
2018-06-23T01:40:58.547Z,0.00
2018-06-23T01:41:58.532Z,0.00
2018-06-23T01:42:58.545Z,0.00
2018-06-23T01:43:58.545Z,0.00
2018-06-23T01:44:58.613Z,0.00
2018-06-23T01:45:58.521Z,0.00
2018-06-23T01:46:58.556Z,0.00
2018-06-23T01:47:58.540Z,0.00
2018-06-23T01:48:58.675Z,0.00
2018-06-23T01:49:58.601Z,0.00
2018-06-23T01:50:58.597Z,0.00
2018-06-23T01:51:58.573Z,0.00
2018-06-23T01:52:58.526Z,0.00
2018-06-23T01:53:58.560Z,0.00
2018-06-23T01:54:58.541Z,0.00
2018-06-23T01:55:58.545Z,0.00
2018-06-23T01:56:58.580Z,0.00
2018-06-23T01:57:58.554Z,0.00
2018-06-23T01:58:58.593Z,0.00
2018-06-23T01:59:58.537Z,0.00
2018-06-23T02:00:58.580Z,0.00
2018-06-23T02:01:58.575Z,0.00
2018-06-23T02:02:58.598Z,0.00
2018-06-23T02:03:58.589Z,0.00
2018-06-23T02:04:58.560Z,0.00
2018-06-23T02:05:58.576Z,0.00
2018-06-23T02:06:58.563Z,0.00
2018-06-23T02:07:58.623Z,0.00
2018-06-23T02:08:58.637Z,0.00
2018-06-23T02:10:00.123Z,0.00
2018-06-23T02:10:58.719Z,0.00
2018-06-23T02:11:58.674Z,0.00
2018-06-23T02:12:58.757Z,0.00
2018-06-23T02:13:58.697Z,0.00
2018-06-23T02:14:58.766Z,0.00
2018-06-23T02:15:59.581Z,0.00
2018-06-23T02:16:58.559Z,0.00
2018-06-23T02:17:59.689Z,0.00
2018-06-23T02:18:58.610Z,0.00
2018-06-23T02:19:58.925Z,0.00
2018-06-23T02:20:58.734Z,0.00
2018-06-23T02:21:59.453Z,0.00
2018-06-23T02:22:58.628Z,0.00
2018-06-23T02:23:58.623Z,0.00
2018-06-23T02:24:58.890Z,0.00
2018-06-23T02:25:58.751Z,0.00
2018-06-23T02:26:58.636Z,0.00
2018-06-23T02:27:58.584Z,0.00
2018-06-23T02:28:58.645Z,0.00
2018-06-23T02:29:58.574Z,0.00
2018-06-23T02:30:58.643Z,0.00
2018-06-23T02:31:58.607Z,0.00
2018-06-23T02:32:58.614Z,0.00
2018-06-23T02:33:58.578Z,0.00
2018-06-23T02:34:58.615Z,0.00
2018-06-23T02:35:58.612Z,0.00
2018-06-23T02:36:58.659Z,0.00
2018-06-23T02:37:58.589Z,0.00
2018-06-23T02:38:58.676Z,0.00
2018-06-23T02:39:58.607Z,0.00
2018-06-23T02:40:58.625Z,0.00
2018-06-23T02:41:58.590Z,0.00
2018-06-23T02:42:58.632Z,0.00
2018-06-23T02:43:58.627Z,0.00
2018-06-23T02:44:58.598Z,0.00
2018-06-23T02:45:58.602Z,0.00
2018-06-23T02:46:58.595Z,0.00
2018-06-23T02:47:58.607Z,0.00
2018-06-23T02:48:58.621Z,0.00
2018-06-23T02:49:58.628Z,0.00
2018-06-23T02:50:58.627Z,0.00
2018-06-23T02:51:58.596Z,0.00
2018-06-23T02:52:59.169Z,0.00
2018-06-23T02:53:58.603Z,0.00
2018-06-23T02:54:58.647Z,0.00
2018-06-23T02:55:58.652Z,0.00
2018-06-23T02:56:58.674Z,0.00
2018-06-23T02:57:58.636Z,0.00
2018-06-23T02:58:58.607Z,0.00
2018-06-23T02:59:58.613Z,0.00
2018-06-23T03:00:58.625Z,0.00
2018-06-23T03:01:58.649Z,0.00
2018-06-23T03:02:58.609Z,0.00
2018-06-23T03:03:58.638Z,0.00
2018-06-23T03:04:58.629Z,0.00
2018-06-23T03:05:58.657Z,0.00
2018-06-23T03:06:58.615Z,0.00
2018-06-23T03:07:58.648Z,0.00
2018-06-23T03:08:58.628Z,0.00
2018-06-23T03:09:58.627Z,0.00
2018-06-23T03:10:58.666Z,0.00
2018-06-23T03:11:58.648Z,0.00
2018-06-23T03:12:58.638Z,0.00
2018-06-23T03:13:58.667Z,0.00
2018-06-23T03:14:58.667Z,0.00
2018-06-23T03:15:58.663Z,0.00
2018-06-23T03:16:58.669Z,0.00
2018-06-23T03:17:58.656Z,0.00
2018-06-23T03:18:58.649Z,0.00
2018-06-23T03:19:58.655Z,5.63
2018-06-23T03:20:58.666Z,5.63
2018-06-23T03:21:58.640Z,5.63
2018-06-23T03:22:58.684Z,5.63
2018-06-23T03:23:58.646Z,5.63
2018-06-23T03:24:58.651Z,5.63
2018-06-23T03:25:58.741Z,5.63
2018-06-23T03:26:58.655Z,5.63
2018-06-23T03:27:58.665Z,5.63
2018-06-23T03:28:58.662Z,5.63
2018-06-23T03:29:58.704Z,5.63
2018-06-23T03:30:58.713Z,5.63
2018-06-23T03:31:58.675Z,5.63
2018-06-23T03:32:58.669Z,11.25
2018-06-23T03:33:58.645Z,11.25
2018-06-23T03:34:58.701Z,5.63
2018-06-23T03:35:58.705Z,5.63
2018-06-23T03:36:58.684Z,5.63
2018-06-23T03:37:58.698Z,5.63
2018-06-23T03:38:58.659Z,5.63
2018-06-23T03:39:58.725Z,5.63
2018-06-23T03:40:58.714Z,5.63
2018-06-23T03:41:58.665Z,5.63
2018-06-23T03:42:58.686Z,5.63
2018-06-23T03:43:58.671Z,5.63
2018-06-23T03:44:58.713Z,5.63
2018-06-23T03:45:58.710Z,5.63
2018-06-23T03:46:58.704Z,5.63
2018-06-23T03:47:58.662Z,5.63
2018-06-23T03:48:58.668Z,5.63
2018-06-23T03:49:58.755Z,5.63
2018-06-23T03:50:58.710Z,5.63
2018-06-23T03:51:58.715Z,5.63
2018-06-23T03:52:58.675Z,5.63
2018-06-23T03:53:58.678Z,5.63
2018-06-23T03:54:58.699Z,5.63
2018-06-23T03:55:58.683Z,5.63
2018-06-23T03:56:58.676Z,5.63
2018-06-23T03:57:58.685Z,11.25
2018-06-23T03:58:58.684Z,11.25
2018-06-23T03:59:58.686Z,11.25
2018-06-23T04:00:58.725Z,11.25
2018-06-23T04:01:58.687Z,11.25
2018-06-23T04:02:58.706Z,11.25
2018-06-23T04:03:58.710Z,16.88
2018-06-23T04:04:58.697Z,16.88
2018-06-23T04:05:58.704Z,16.88
2018-06-23T04:06:58.689Z,16.88
2018-06-23T04:07:58.718Z,22.50
2018-06-23T04:08:58.745Z,16.88
2018-06-23T04:09:58.747Z,16.88
2018-06-23T04:10:58.711Z,16.88
2018-06-23T04:11:58.687Z,16.88
2018-06-23T04:12:58.728Z,11.25
2018-06-23T04:13:58.697Z,11.25
2018-06-23T04:14:58.725Z,11.25
2018-06-23T04:15:58.705Z,11.25
2018-06-23T04:16:58.728Z,11.25
2018-06-23T04:17:58.713Z,11.25
2018-06-23T04:18:58.704Z,11.25
2018-06-23T04:19:58.731Z,16.88
2018-06-23T04:20:58.724Z,16.88
2018-06-23T04:21:58.741Z,16.88
2018-06-23T04:22:58.756Z,16.88
2018-06-23T04:23:58.739Z,11.25
2018-06-23T04:24:58.735Z,11.25
2018-06-23T04:25:58.770Z,11.25
2018-06-23T04:26:58.762Z,11.25
2018-06-23T04:27:58.746Z,11.25
2018-06-23T04:28:58.725Z,11.25
2018-06-23T04:29:58.725Z,11.25
2018-06-23T04:30:58.731Z,11.25
2018-06-23T04:31:58.719Z,11.25
2018-06-23T04:32:58.721Z,11.25
2018-06-23T04:33:58.794Z,16.88
2018-06-23T04:34:58.725Z,16.88
2018-06-23T04:35:58.748Z,22.50
2018-06-23T04:36:58.738Z,28.13
2018-06-23T04:37:58.745Z,33.75
2018-06-23T04:38:58.726Z,39.38
2018-06-23T04:39:58.739Z,39.38
2018-06-23T04:40:58.763Z,33.75
2018-06-23T04:41:58.769Z,33.75
2018-06-23T04:42:58.831Z,28.13
2018-06-23T04:43:58.752Z,28.13
2018-06-23T04:44:58.778Z,33.75
2018-06-23T04:45:58.733Z,33.75
2018-06-23T04:46:58.744Z,39.38
2018-06-23T04:47:58.750Z,39.38
2018-06-23T04:48:58.735Z,33.75
2018-06-23T04:49:58.741Z,39.38
2018-06-23T04:50:58.767Z,39.38
2018-06-23T04:51:58.776Z,39.38
2018-06-23T04:52:58.735Z,39.38
2018-06-23T04:53:58.742Z,33.75
2018-06-23T04:54:58.747Z,39.38
2018-06-23T04:55:58.796Z,45.00
2018-06-23T04:56:58.789Z,56.25
2018-06-23T04:57:58.850Z,73.13
2018-06-23T04:58:58.781Z,84.38
2018-06-23T04:59:58.777Z,78.75
2018-06-23T05:00:58.800Z,50.63
2018-06-23T05:01:58.762Z,56.25
2018-06-23T05:02:58.765Z,56.25
2018-06-23T05:03:58.797Z,67.50
2018-06-23T05:04:58.761Z,61.88
2018-06-23T05:05:58.763Z,56.25
2018-06-23T05:06:58.751Z,50.63
2018-06-23T05:07:58.780Z,56.25
2018-06-23T05:08:58.841Z,56.25
2018-06-23T05:09:58.831Z,50.63
2018-06-23T05:10:58.889Z,39.38
2018-06-23T05:11:58.820Z,45.00
2018-06-23T05:12:58.827Z,45.00
2018-06-23T05:13:58.812Z,45.00
2018-06-23T05:14:58.824Z,56.25
2018-06-23T05:15:58.792Z,45.00
2018-06-23T05:16:58.804Z,39.38
2018-06-23T05:17:58.785Z,28.13
2018-06-23T05:18:58.815Z,39.38
2018-06-23T05:19:58.834Z,50.63
2018-06-23T05:20:58.775Z,39.38
2018-06-23T05:21:58.790Z,33.75
2018-06-23T05:22:58.778Z,28.13
2018-06-23T05:23:58.790Z,28.13
2018-06-23T05:24:58.786Z,28.13
2018-06-23T05:25:58.811Z,33.75
2018-06-23T05:26:58.789Z,33.75
2018-06-23T05:27:58.799Z,28.13
2018-06-23T05:28:58.803Z,33.75
2018-06-23T05:29:58.826Z,45.00
2018-06-23T05:30:58.818Z,50.63
2018-06-23T05:31:58.826Z,33.75
2018-06-23T05:32:58.850Z,39.38
2018-06-23T05:33:58.841Z,33.75
2018-06-23T05:34:59.333Z,50.63
2018-06-23T05:35:59.200Z,61.88
2018-06-23T05:36:58.850Z,67.50
2018-06-23T05:37:58.807Z,50.63
2018-06-23T05:38:59.063Z,61.88
2018-06-23T05:39:58.808Z,78.75
2018-06-23T05:40:58.849Z,78.75
2018-06-23T05:41:58.810Z,90.00
2018-06-23T05:42:58.816Z,73.13
2018-06-23T05:43:58.802Z,67.50
2018-06-23T05:44:58.867Z,45.00
2018-06-23T05:45:58.821Z,33.75
2018-06-23T05:46:58.855Z,33.75
2018-06-23T05:47:58.939Z,33.75
2018-06-23T05:48:58.854Z,50.63
2018-06-23T05:49:58.813Z,73.13
2018-06-23T05:50:58.816Z,61.88
2018-06-23T05:51:58.848Z,73.13
2018-06-23T05:52:58.880Z,106.88
2018-06-23T05:53:58.811Z,163.13
2018-06-23T05:54:58.814Z,191.25
2018-06-23T05:55:58.873Z,185.63
2018-06-23T05:56:58.822Z,219.38
2018-06-23T05:57:58.885Z,230.63
2018-06-23T05:58:58.826Z,196.88
2018-06-23T05:59:58.834Z,202.50
2018-06-23T06:00:58.833Z,196.88
2018-06-23T06:01:58.861Z,202.50
2018-06-23T06:02:58.866Z,213.75
2018-06-23T06:03:58.882Z,219.38
2018-06-23T06:04:58.886Z,225.00
2018-06-23T06:05:58.886Z,219.38
2018-06-23T06:06:58.869Z,163.13
2018-06-23T06:07:58.848Z,106.88
2018-06-23T06:08:58.971Z,168.75
2018-06-23T06:09:58.908Z,202.50
2018-06-23T06:10:58.837Z,219.38
2018-06-23T06:11:58.883Z,247.50
2018-06-23T06:12:58.908Z,213.75
2018-06-23T06:13:58.881Z,157.50
2018-06-23T06:14:58.923Z,151.88
2018-06-23T06:15:58.876Z,230.63
2018-06-23T06:16:58.880Z,309.38
2018-06-23T06:17:58.898Z,208.13
2018-06-23T06:18:58.995Z,236.25
2018-06-23T06:19:58.898Z,241.88
2018-06-23T06:20:58.920Z,376.88
2018-06-23T06:21:58.867Z,416.25
2018-06-23T06:22:58.872Z,489.38
2018-06-23T06:23:58.880Z,399.38
2018-06-23T06:24:58.924Z,860.63
2018-06-23T06:25:58.909Z,939.38
2018-06-23T06:26:58.910Z,455.63
2018-06-23T06:27:58.912Z,528.75
2018-06-23T06:28:58.937Z,523.13
2018-06-23T06:29:58.925Z,635.63
2018-06-23T06:30:58.882Z,601.88
2018-06-23T06:31:58.884Z,551.25
2018-06-23T06:32:58.899Z,506.25
2018-06-23T06:33:58.907Z,871.88
2018-06-23T06:34:59.033Z,534.38
2018-06-23T06:35:58.900Z,410.63
2018-06-23T06:36:58.917Z,410.63
2018-06-23T06:37:58.928Z,562.50
2018-06-23T06:38:58.941Z,399.38
2018-06-23T06:39:58.946Z,331.88
2018-06-23T06:40:58.953Z,270.00
2018-06-23T06:41:58.943Z,174.38
2018-06-23T06:42:58.960Z,174.38
2018-06-23T06:43:58.928Z,140.63
2018-06-23T06:44:58.940Z,208.13
2018-06-23T06:45:59.745Z,292.50
2018-06-23T06:46:58.930Z,140.63
2018-06-23T06:47:58.957Z,123.75
2018-06-23T06:48:58.976Z,146.25
2018-06-23T06:49:58.983Z,163.13
2018-06-23T06:50:58.931Z,196.88
2018-06-23T06:51:58.960Z,213.75
2018-06-23T06:52:58.972Z,281.25
2018-06-23T06:53:58.995Z,382.50
2018-06-23T06:54:58.963Z,303.75
2018-06-23T06:55:58.948Z,225.00
2018-06-23T06:56:58.984Z,174.38
2018-06-23T06:57:58.938Z,151.88
2018-06-23T06:58:58.957Z,135.00
2018-06-23T06:59:58.995Z,157.50
2018-06-23T07:00:58.988Z,196.88
2018-06-23T07:01:58.970Z,157.50
2018-06-23T07:02:58.988Z,151.88
2018-06-23T07:03:59.005Z,112.50
2018-06-23T07:04:58.979Z,123.75
2018-06-23T07:05:59.047Z,118.13
2018-06-23T07:06:59.010Z,157.50
2018-06-23T07:07:59.000Z,202.50
2018-06-23T07:08:59.095Z,230.63
2018-06-23T07:09:59.014Z,213.75
2018-06-23T07:10:59.053Z,298.13
2018-06-23T07:11:59.024Z,466.88
2018-06-23T07:12:58.981Z,1046.25
2018-06-23T07:13:59.034Z,703.13
2018-06-23T07:14:58.986Z,607.50
2018-06-23T07:15:58.982Z,450.00
2018-06-23T07:16:59.062Z,500.63
2018-06-23T07:17:59.188Z,309.38
2018-06-23T07:18:59.091Z,230.63
2018-06-23T07:19:59.037Z,315.00
2018-06-23T07:20:59.047Z,455.63
2018-06-23T07:21:59.048Z,331.88
2018-06-23T07:22:59.028Z,421.88
2018-06-23T07:23:59.122Z,573.75
2018-06-23T07:24:59.060Z,618.75
2018-06-23T07:25:59.092Z,528.75
2018-06-23T07:26:59.029Z,393.75
2018-06-23T07:27:59.044Z,444.38
2018-06-23T07:28:59.053Z,472.50
2018-06-23T07:29:59.065Z,495.00
2018-06-23T07:30:59.074Z,601.88
2018-06-23T07:31:59.073Z,832.50
2018-06-23T07:32:59.084Z,635.63
2018-06-23T07:33:59.068Z,1063.13
2018-06-23T07:34:59.110Z,849.38
2018-06-23T07:35:59.072Z,1029.38
2018-06-23T07:36:59.072Z,984.38
2018-06-23T07:37:59.092Z,568.13
2018-06-23T07:38:59.062Z,478.13
2018-06-23T07:39:59.063Z,444.38
2018-06-23T07:40:59.095Z,483.75
2018-06-23T07:41:59.096Z,427.50
2018-06-23T07:42:59.144Z,376.88
2018-06-23T07:43:59.069Z,590.63
2018-06-23T07:44:59.088Z,551.25
2018-06-23T07:45:59.096Z,635.63
2018-06-23T07:46:59.081Z,388.13
2018-06-23T07:47:59.103Z,405.00
2018-06-23T07:48:59.128Z,613.13
2018-06-23T07:49:59.754Z,596.25
2018-06-23T07:50:59.324Z,376.88
2018-06-23T07:51:59.106Z,331.88
2018-06-23T07:52:59.110Z,410.63
2018-06-23T07:53:59.124Z,675.00
2018-06-23T07:54:59.137Z,866.25
2018-06-23T07:55:59.219Z,697.50
2018-06-23T07:56:59.121Z,1091.25
2018-06-23T07:57:59.248Z,1243.13
2018-06-23T07:58:59.182Z,1113.75
2018-06-23T07:59:59.123Z,1130.63
2018-06-23T08:00:59.191Z,618.75
2018-06-23T08:01:59.136Z,843.75
2018-06-23T08:02:59.220Z,360.00
2018-06-23T08:03:59.146Z,405.00
2018-06-23T08:04:59.166Z,444.38
2018-06-23T08:05:59.193Z,1828.13
2018-06-23T08:06:59.191Z,1496.25
2018-06-23T08:07:59.179Z,523.13
2018-06-23T08:08:59.211Z,613.13
2018-06-23T08:09:59.208Z,928.13
2018-06-23T08:10:59.218Z,433.13
2018-06-23T08:11:59.179Z,2244.38
2018-06-23T08:12:59.347Z,2311.88
2018-06-23T08:13:59.249Z,2435.63
2018-06-23T08:14:59.211Z,2643.75
2018-06-23T08:15:59.250Z,2908.13
2018-06-23T08:16:59.214Z,3487.50
2018-06-23T08:17:59.246Z,2233.13
2018-06-23T08:18:59.238Z,1771.88
2018-06-23T08:19:59.281Z,1271.25
2018-06-23T08:20:59.286Z,534.38
2018-06-23T08:21:59.292Z,331.88
2018-06-23T08:22:59.285Z,309.38
2018-06-23T08:23:59.285Z,360.00
2018-06-23T08:24:59.293Z,421.88
2018-06-23T08:25:59.316Z,4854.38
2018-06-23T08:26:59.311Z,388.13
2018-06-23T08:27:59.321Z,348.75
2018-06-23T08:28:59.321Z,534.38
2018-06-23T08:29:59.292Z,2356.88
2018-06-23T08:30:59.386Z,3622.50
2018-06-23T08:31:59.386Z,5287.50
2018-06-23T08:32:59.308Z,1788.75
2018-06-23T08:33:59.775Z,2778.75
2018-06-23T08:34:59.355Z,1125.00
2018-06-23T08:35:59.364Z,2233.13
2018-06-23T08:36:59.392Z,2981.25
2018-06-23T08:37:59.357Z,1102.50
2018-06-23T08:38:59.382Z,1715.63
2018-06-23T08:39:59.492Z,618.75
2018-06-23T08:40:59.374Z,421.88
2018-06-23T08:41:59.416Z,433.13
2018-06-23T08:42:59.433Z,1102.50
2018-06-23T08:43:59.425Z,1760.63
2018-06-23T08:44:59.428Z,579.38
2018-06-23T08:45:59.658Z,444.38
2018-06-23T08:46:59.525Z,495.00
2018-06-23T08:47:59.490Z,540.00
2018-06-23T08:48:59.466Z,585.00
2018-06-23T08:49:59.471Z,1507.50
2018-06-23T08:50:59.484Z,1569.38
2018-06-23T08:51:59.457Z,2362.50
2018-06-23T08:52:59.491Z,3712.50
2018-06-23T08:53:59.494Z,3279.38
2018-06-23T08:54:59.577Z,2671.88
2018-06-23T08:55:59.501Z,3256.88
2018-06-23T08:56:59.488Z,2896.88
2018-06-23T08:57:59.530Z,2767.50
2018-06-23T08:58:59.579Z,3425.63
2018-06-23T08:59:59.519Z,3684.38
2018-06-23T09:00:59.506Z,2233.13
2018-06-23T09:01:59.698Z,1884.38
2018-06-23T09:02:59.601Z,708.75
2018-06-23T09:03:59.603Z,658.13
2018-06-23T09:04:59.573Z,3397.50
2018-06-23T09:05:59.596Z,3296.25
2018-06-23T09:06:59.639Z,1327.50
2018-06-23T09:07:59.643Z,911.25
2018-06-23T09:08:59.622Z,3442.50
2018-06-23T09:09:59.819Z,3223.13
2018-06-23T09:10:59.655Z,2936.25
2018-06-23T09:11:59.681Z,1845.00
2018-06-23T09:12:59.695Z,3054.38
2018-06-23T09:13:59.634Z,2716.88
2018-06-23T09:14:59.665Z,2469.38
2018-06-23T09:15:59.739Z,3701.25
2018-06-23T09:16:59.734Z,2705.63
2018-06-23T09:17:59.743Z,444.38
2018-06-23T09:18:59.749Z,354.38
2018-06-23T09:20:00.308Z,303.75
2018-06-23T09:20:59.731Z,292.50
2018-06-23T09:21:59.725Z,275.63
2018-06-23T09:22:59.777Z,213.75
2018-06-23T09:23:59.812Z,202.50
2018-06-23T09:24:59.809Z,258.75
2018-06-23T09:25:59.984Z,562.50
2018-06-23T09:26:59.824Z,1788.75
2018-06-23T09:27:59.850Z,1518.75
2018-06-23T09:28:59.862Z,736.88
2018-06-23T09:29:59.843Z,838.13
2018-06-23T09:30:59.857Z,1001.25
2018-06-23T09:31:59.872Z,652.50
2018-06-23T09:32:59.864Z,905.63
2018-06-23T09:33:59.879Z,601.88
2018-06-23T09:34:59.910Z,607.50
2018-06-23T09:35:59.881Z,990.00
2018-06-23T09:36:59.916Z,1192.50
2018-06-23T09:37:59.905Z,731.25
2018-06-23T09:39:00.005Z,421.88
2018-06-23T09:39:59.932Z,281.25
2018-06-23T09:40:59.935Z,230.63
2018-06-23T09:41:59.919Z,213.75
2018-06-23T09:42:59.962Z,196.88
2018-06-23T09:43:59.940Z,157.50
2018-06-23T09:45:00.826Z,140.63
2018-06-23T09:46:00.044Z,151.88
2018-06-23T09:46:59.982Z,185.63
2018-06-23T09:48:00.000Z,225.00
2018-06-23T09:49:00.003Z,258.75
2018-06-23T09:50:00.014Z,303.75
2018-06-23T09:51:00.014Z,365.63
2018-06-23T09:52:00.028Z,466.88
2018-06-23T09:53:00.049Z,545.63
2018-06-23T09:53:59.989Z,663.75
2018-06-23T09:55:00.019Z,506.25
2018-06-23T09:56:00.150Z,388.13
2018-06-23T09:57:00.052Z,405.00
2018-06-23T09:57:59.997Z,534.38
2018-06-23T09:59:00.103Z,523.13
2018-06-23T10:00:00.012Z,596.25
2018-06-23T10:01:00.070Z,658.13
2018-06-23T10:02:00.057Z,663.75
2018-06-23T10:03:00.054Z,652.50
2018-06-23T10:04:00.050Z,787.50
2018-06-23T10:05:00.085Z,658.13
2018-06-23T10:06:00.097Z,450.00
2018-06-23T10:07:00.905Z,360.00
2018-06-23T10:08:00.106Z,360.00
2018-06-23T10:09:00.094Z,320.63
2018-06-23T10:10:00.840Z,303.75
2018-06-23T10:11:00.103Z,354.38
2018-06-23T10:12:03.929Z,483.75
2018-06-23T10:13:00.131Z,427.50
2018-06-23T10:14:00.083Z,427.50
2018-06-23T10:15:00.098Z,450.00
2018-06-23T10:16:00.138Z,742.50
2018-06-23T10:17:01.557Z,1704.38
2018-06-23T10:18:00.121Z,714.38
2018-06-23T10:19:00.207Z,1411.88
2018-06-23T10:20:00.150Z,871.88
2018-06-23T10:21:00.138Z,748.13
2018-06-23T10:22:00.237Z,590.63
2018-06-23T10:23:00.134Z,585.00
2018-06-23T10:24:00.141Z,421.88
2018-06-23T10:25:00.160Z,545.63
2018-06-23T10:26:00.178Z,450.00
2018-06-23T10:27:00.152Z,326.25
2018-06-23T10:28:00.162Z,691.88
2018-06-23T10:29:00.166Z,686.25
2018-06-23T10:30:00.193Z,669.38
2018-06-23T10:31:00.191Z,1861.88
2018-06-23T10:32:00.192Z,866.25
2018-06-23T10:33:00.217Z,866.25
2018-06-23T10:34:00.212Z,1732.50
2018-06-23T10:35:00.231Z,849.38
2018-06-23T10:36:00.232Z,601.88
2018-06-23T10:37:00.246Z,720.00
2018-06-23T10:38:00.240Z,1586.25
2018-06-23T10:39:00.242Z,691.88
2018-06-23T10:40:00.279Z,601.88
2018-06-23T10:41:00.233Z,658.13
2018-06-23T10:42:00.352Z,652.50
2018-06-23T10:43:00.296Z,579.38
2018-06-23T10:44:00.325Z,551.25
2018-06-23T10:45:00.264Z,596.25
2018-06-23T10:46:00.248Z,691.88
2018-06-23T10:47:00.286Z,731.25
2018-06-23T10:48:00.397Z,832.50
2018-06-23T10:49:00.344Z,871.88
2018-06-23T10:50:00.316Z,866.25
2018-06-23T10:51:00.307Z,843.75
2018-06-23T10:52:00.281Z,776.25
2018-06-23T10:53:00.271Z,781.88
2018-06-23T10:54:00.308Z,725.63
2018-06-23T10:55:00.323Z,646.88
2018-06-23T10:56:00.359Z,540.00
2018-06-23T10:57:00.329Z,478.13
2018-06-23T10:58:00.327Z,466.88
2018-06-23T10:59:00.314Z,523.13
2018-06-23T11:00:00.351Z,495.00
2018-06-23T11:01:00.377Z,421.88
2018-06-23T11:02:00.374Z,455.63
2018-06-23T11:03:00.377Z,466.88
2018-06-23T11:04:00.379Z,534.38
2018-06-23T11:05:00.439Z,562.50
2018-06-23T11:06:00.388Z,568.13
2018-06-23T11:07:00.353Z,658.13
2018-06-23T11:08:00.360Z,596.25
2018-06-23T11:09:00.406Z,585.00
2018-06-23T11:10:00.406Z,438.75
2018-06-23T11:11:00.389Z,405.00
2018-06-23T11:12:00.381Z,523.13
2018-06-23T11:13:00.389Z,495.00
2018-06-23T11:14:00.428Z,472.50
2018-06-23T11:15:00.411Z,405.00
2018-06-23T11:16:00.394Z,438.75
2018-06-23T11:17:00.480Z,444.38
2018-06-23T11:18:00.432Z,405.00
2018-06-23T11:19:00.471Z,416.25
2018-06-23T11:20:00.471Z,393.75
2018-06-23T11:21:00.525Z,410.63
2018-06-23T11:22:00.480Z,382.50
2018-06-23T11:23:00.438Z,320.63
2018-06-23T11:24:00.479Z,286.88
2018-06-23T11:25:00.448Z,326.25
2018-06-23T11:26:00.480Z,298.13
2018-06-23T11:27:00.476Z,225.00
2018-06-23T11:28:00.515Z,185.63
2018-06-23T11:29:00.508Z,168.75
2018-06-23T11:30:00.525Z,163.13
2018-06-23T11:31:00.619Z,157.50
2018-06-23T11:32:00.535Z,180.00
2018-06-23T11:33:00.488Z,241.88
2018-06-23T11:34:00.554Z,326.25
2018-06-23T11:35:00.529Z,399.38
2018-06-23T11:36:00.581Z,410.63
2018-06-23T11:37:00.537Z,461.25
2018-06-23T11:38:00.518Z,562.50
2018-06-23T11:39:00.536Z,646.88
2018-06-23T11:40:00.522Z,641.25
2018-06-23T11:41:00.550Z,551.25
2018-06-23T11:42:00.543Z,444.38
2018-06-23T11:43:00.537Z,360.00
2018-06-23T11:44:00.580Z,286.88
2018-06-23T11:45:00.576Z,236.25
2018-06-23T11:46:00.581Z,236.25
2018-06-23T11:47:00.533Z,264.38
2018-06-23T11:48:00.628Z,286.88
2018-06-23T11:49:00.584Z,331.88
2018-06-23T11:50:00.604Z,348.75
2018-06-23T11:51:00.554Z,405.00
2018-06-23T11:52:00.601Z,455.63
2018-06-23T11:53:00.680Z,421.88
2018-06-23T11:54:00.563Z,399.38
2018-06-23T11:55:00.623Z,343.13
2018-06-23T11:56:00.608Z,343.13
2018-06-23T11:57:00.649Z,360.00
2018-06-23T11:58:00.779Z,371.25
2018-06-23T11:59:00.590Z,348.75
2018-06-23T12:00:00.646Z,399.38
2018-06-23T12:01:00.610Z,495.00
2018-06-23T12:02:00.691Z,511.88
2018-06-23T12:03:00.643Z,528.75
2018-06-23T12:04:00.688Z,472.50
2018-06-23T12:05:00.618Z,405.00
2018-06-23T12:06:00.691Z,382.50
2018-06-23T12:07:00.819Z,360.00
2018-06-23T12:08:00.783Z,326.25
2018-06-23T12:09:00.665Z,354.38
2018-06-23T12:10:00.623Z,444.38
2018-06-23T12:11:00.666Z,427.50
2018-06-23T12:12:00.725Z,405.00
2018-06-23T12:13:00.720Z,326.25
2018-06-23T12:14:00.689Z,258.75
2018-06-23T12:15:00.668Z,309.38
2018-06-23T12:16:00.679Z,399.38
2018-06-23T12:17:00.715Z,399.38
2018-06-23T12:18:00.722Z,371.25
2018-06-23T12:19:00.719Z,365.63
2018-06-23T12:20:00.773Z,410.63
2018-06-23T12:21:00.694Z,410.63
2018-06-23T12:22:00.719Z,410.63
2018-06-23T12:23:00.670Z,388.13
2018-06-23T12:24:00.773Z,337.50
2018-06-23T12:25:00.828Z,326.25
2018-06-23T12:26:00.718Z,292.50
2018-06-23T12:27:00.721Z,275.63
2018-06-23T12:28:00.752Z,331.88
2018-06-23T12:29:00.751Z,337.50
2018-06-23T12:30:00.791Z,281.25
2018-06-23T12:31:01.405Z,230.63
2018-06-23T12:32:00.771Z,225.00
2018-06-23T12:33:00.751Z,213.75
2018-06-23T12:34:00.741Z,202.50
2018-06-23T12:35:00.750Z,180.00
2018-06-23T12:36:00.791Z,185.63
2018-06-23T12:37:00.799Z,202.50
2018-06-23T12:38:00.761Z,236.25
2018-06-23T12:39:00.767Z,247.50
2018-06-23T12:40:00.784Z,309.38
2018-06-23T12:41:00.756Z,303.75
2018-06-23T12:42:00.833Z,326.25
2018-06-23T12:43:00.805Z,365.63
2018-06-23T12:44:00.823Z,348.75
2018-06-23T12:45:00.768Z,343.13